createdAt,value
2019-04-23T00:00:13.547Z,24.60
2019-04-23T00:01:23.586Z,24.60
2019-04-23T00:02:18.523Z,24.60
2019-04-23T00:03:30.228Z,24.60
2019-04-23T00:04:23.946Z,24.60
2019-04-23T00:05:51.464Z,24.60
2019-04-23T00:06:42.928Z,24.60
2019-04-23T00:07:49.803Z,24.60
2019-04-23T00:09:10.925Z,24.60
2019-04-23T00:09:57.616Z,24.60
2019-04-23T00:10:58.751Z,24.60
2019-04-23T00:11:59.831Z,24.60
2019-04-23T00:12:59.253Z,24.60
2019-04-23T00:14:15.152Z,24.60
2019-04-23T00:15:10.468Z,24.60
2019-04-23T00:16:20.436Z,24.60
2019-04-23T00:17:35.777Z,24.60
2019-04-23T00:18:37.765Z,24.60
2019-04-23T00:19:33.018Z,24.60
2019-04-23T00:20:33.933Z,24.60
2019-04-23T00:22:52.854Z,24.50
2019-04-23T00:24:01.687Z,24.60
2019-04-23T00:26:02.698Z,24.60
2019-04-23T00:27:15.634Z,24.60
2019-04-23T00:28:16.411Z,24.60
2019-04-23T00:29:21.922Z,24.60
2019-04-23T00:30:27.597Z,24.60
2019-04-23T00:31:24.024Z,24.60
2019-04-23T00:33:50.673Z,24.60
2019-04-23T00:34:45.314Z,24.50
2019-04-23T00:35:43.369Z,24.60
2019-04-23T00:36:51.373Z,24.60
2019-04-23T00:37:54.907Z,24.60
2019-04-23T00:38:54.276Z,24.60
2019-04-23T00:40:03.160Z,24.60
2019-04-23T00:41:09.308Z,24.60
2019-04-23T00:42:17.658Z,24.60
2019-04-23T00:44:29.798Z,24.50
2019-04-23T00:45:33.156Z,24.50
2019-04-23T00:46:36.859Z,24.50
2019-04-23T00:47:48.510Z,24.60
2019-04-23T00:49:51.295Z,24.50
2019-04-23T00:52:02.087Z,24.60
2019-04-23T00:53:18.899Z,24.60
2019-04-23T00:54:05.930Z,24.50
2019-04-23T00:55:14.477Z,24.50
2019-04-23T00:56:32.433Z,24.50
2019-04-23T00:57:24.256Z,24.50
2019-04-23T00:58:32.403Z,24.50
2019-04-23T00:59:31.038Z,24.50
2019-04-23T01:01:45.764Z,24.50
2019-04-23T01:02:49.302Z,24.50
2019-04-23T01:03:48.319Z,24.50
2019-04-23T01:04:55.896Z,24.50
2019-04-23T01:05:57.119Z,24.50
2019-04-23T01:07:04.448Z,24.50
2019-04-23T01:08:06.983Z,24.50
2019-04-23T01:09:08.493Z,24.50
2019-04-23T01:10:13.954Z,24.50
2019-04-23T01:11:20.757Z,24.50
2019-04-23T01:12:31.169Z,24.50
2019-04-23T01:13:36.723Z,24.50
2019-04-23T01:14:33.834Z,24.50
2019-04-23T01:15:54.005Z,24.50
2019-04-23T01:16:38.107Z,24.50
2019-04-23T01:17:51.072Z,24.50
2019-04-23T01:18:51.305Z,24.50
2019-04-23T01:19:54.760Z,24.50
2019-04-23T01:20:54.771Z,24.50
2019-04-23T01:21:43.552Z,24.50
2019-04-23T01:22:46.553Z,24.50
2019-04-23T01:23:54.821Z,24.50
2019-04-23T01:25:07.362Z,24.50
2019-04-23T01:26:16.397Z,24.50
2019-04-23T01:27:41.115Z,24.50
2019-04-23T01:28:39.987Z,24.50
2019-04-23T01:29:42.842Z,24.50
2019-04-23T01:30:40.908Z,24.50
2019-04-23T01:31:47.564Z,24.50
2019-04-23T01:32:51.326Z,24.50
2019-04-23T01:33:56.621Z,24.50
2019-04-23T01:35:12.730Z,24.50
2019-04-23T01:36:16.245Z,24.50
2019-04-23T01:37:12.605Z,24.50
2019-04-23T01:38:24.134Z,24.50
2019-04-23T01:39:15.784Z,24.50
2019-04-23T01:40:29.840Z,24.50
2019-04-23T01:41:26.530Z,24.50
2019-04-23T01:42:41.853Z,24.50
2019-04-23T01:45:47.900Z,24.50
2019-04-23T01:46:56.130Z,24.50
2019-04-23T01:47:58.433Z,24.50
2019-04-23T01:49:20.717Z,24.50
2019-04-23T01:51:09.725Z,24.50
2019-04-23T01:52:17.922Z,24.50
2019-04-23T01:54:25.976Z,24.50
2019-04-23T01:56:33.721Z,24.50
2019-04-23T01:57:47.333Z,24.50
2019-04-23T01:58:44.098Z,24.50
2019-04-23T01:59:55.231Z,24.50
2019-04-23T02:00:54.443Z,24.50
2019-04-23T02:01:58.210Z,24.50
2019-04-23T02:04:15.245Z,24.50
2019-04-23T02:05:38.508Z,24.50
2019-04-23T02:06:20.553Z,24.50
2019-04-23T02:07:30.647Z,24.50
2019-04-23T02:08:28.065Z,24.50
2019-04-23T02:09:35.724Z,24.50
2019-04-23T02:10:47.593Z,24.50
2019-04-23T02:11:42.165Z,24.50
2019-04-23T02:12:53.603Z,24.50
2019-04-23T02:14:57.270Z,24.50
2019-04-23T02:16:01.313Z,24.50
2019-04-23T02:17:10.523Z,24.50
2019-04-23T02:18:11.495Z,24.50
2019-04-23T02:19:19.658Z,24.50
2019-04-23T02:20:25.922Z,24.50
2019-04-23T02:21:26.109Z,24.50
2019-04-23T02:22:31.503Z,24.50
2019-04-23T02:24:45.688Z,24.50
2019-04-23T02:25:54.112Z,24.50
2019-04-23T02:26:43.469Z,24.50
2019-04-23T02:27:59.908Z,24.50
2019-04-23T02:28:59.143Z,24.50
2019-04-23T02:30:15.609Z,24.50
2019-04-23T02:31:21.421Z,24.40
2019-04-23T02:32:12.104Z,24.50
2019-04-23T02:34:40.993Z,24.50
2019-04-23T02:35:42.706Z,24.50
2019-04-23T02:36:40.520Z,24.50
2019-04-23T02:37:58.274Z,24.50
2019-04-23T02:38:52.367Z,24.50
2019-04-23T02:42:07.403Z,24.50
2019-04-23T02:44:15.185Z,24.50
2019-04-23T02:45:09.416Z,24.50
2019-04-23T02:47:30.001Z,24.40
2019-04-23T02:49:44.145Z,24.50
2019-04-23T02:50:48.759Z,24.50
2019-04-23T02:51:48.094Z,24.50
2019-04-23T02:52:48.991Z,24.40
2019-04-23T02:54:06.336Z,24.50
2019-04-23T02:55:03.765Z,24.40
2019-04-23T02:56:24.118Z,24.40
2019-04-23T02:59:25.452Z,24.40
2019-04-23T03:00:28.822Z,24.50
2019-04-23T03:01:28.008Z,24.40
2019-04-23T03:04:41.788Z,24.40
2019-04-23T03:05:46.363Z,24.40
2019-04-23T03:06:56.067Z,24.40
2019-04-23T03:07:54.212Z,24.40
2019-04-23T03:08:49.177Z,24.40
2019-04-23T03:11:26.022Z,24.40
2019-04-23T03:12:15.960Z,24.40
2019-04-23T03:13:32.060Z,24.40
2019-04-23T03:15:50.051Z,24.40
2019-04-23T03:16:38.102Z,24.40
2019-04-23T03:17:36.951Z,24.40
2019-04-23T03:18:47.872Z,24.40
2019-04-23T03:19:47.254Z,24.40
2019-04-23T03:21:21.719Z,24.40
2019-04-23T03:24:13.410Z,24.40
2019-04-23T03:25:10.283Z,24.40
2019-04-23T03:27:22.940Z,24.40
2019-04-23T03:28:29.680Z,24.40
2019-04-23T03:31:34.094Z,24.40
2019-04-23T03:33:11.077Z,24.40
2019-04-23T03:34:26.228Z,24.40
2019-04-23T03:38:08.293Z,24.40
2019-04-23T03:38:55.995Z,24.40
2019-04-23T03:40:18.790Z,24.40
2019-04-23T03:42:22.368Z,24.40
2019-04-23T03:43:33.248Z,24.40
2019-04-23T03:44:44.591Z,24.40
2019-04-23T03:46:40.278Z,24.40
2019-04-23T03:47:48.243Z,24.40
2019-04-23T03:50:54.797Z,24.40
2019-04-23T03:52:16.895Z,24.40
2019-04-23T03:53:14.094Z,24.40
2019-04-23T03:54:26.282Z,24.40
2019-04-23T03:55:32.761Z,24.40
2019-04-23T03:58:39.449Z,24.40
2019-04-23T04:02:03.469Z,24.40
2019-04-23T04:03:03.741Z,24.30
2019-04-23T04:04:20.653Z,24.40
2019-04-23T04:05:06.101Z,24.40
2019-04-23T04:10:29.009Z,24.40
2019-04-23T04:12:35.443Z,24.40
2019-04-23T04:13:42.802Z,24.40
2019-04-23T04:14:46.561Z,24.40
2019-04-23T04:15:57.172Z,24.40
2019-04-23T04:16:59.591Z,24.30
2019-04-23T04:18:13.948Z,24.40
2019-04-23T04:19:29.443Z,24.40
2019-04-23T04:21:22.439Z,24.30
2019-04-23T04:22:37.374Z,24.40
2019-04-23T04:26:46.683Z,24.40
2019-04-23T04:27:47.993Z,24.40
2019-04-23T04:28:46.048Z,24.40
2019-04-23T04:30:48.470Z,24.30
2019-04-23T04:33:05.952Z,24.40
2019-04-23T04:34:21.413Z,24.40
2019-04-23T04:36:20.402Z,24.40
2019-04-23T04:39:34.072Z,24.40
2019-04-23T04:40:39.178Z,24.40
2019-04-23T04:42:58.560Z,24.40
2019-04-23T04:45:14.311Z,24.40
2019-04-23T04:46:21.794Z,24.40
2019-04-23T04:46:59.239Z,24.40
2019-04-23T04:48:00.500Z,24.40
2019-04-23T04:49:12.055Z,24.40
2019-04-23T04:50:35.224Z,24.40
2019-04-23T04:51:31.567Z,24.40
2019-04-23T04:54:44.391Z,24.40
2019-04-23T04:56:42.613Z,24.40
2019-04-23T04:57:52.317Z,24.50
2019-04-23T05:01:08.243Z,24.50
2019-04-23T05:02:14.559Z,24.50
2019-04-23T05:04:26.936Z,24.50
2019-04-23T05:06:01.790Z,24.50
2019-04-23T05:08:38.327Z,24.50
2019-04-23T05:09:48.524Z,24.50
2019-04-23T05:12:01.409Z,24.50
2019-04-23T05:13:09.021Z,24.60
2019-04-23T05:15:03.152Z,24.60
2019-04-23T05:16:07.979Z,24.60
2019-04-23T05:17:18.282Z,24.70
2019-04-23T05:19:31.605Z,24.70
2019-04-23T05:20:32.939Z,24.70
2019-04-23T05:22:40.828Z,24.70
2019-04-23T05:24:43.343Z,24.80
2019-04-23T05:25:44.768Z,24.80
2019-04-23T05:26:37.626Z,24.80
2019-04-23T05:28:05.629Z,24.90
2019-04-23T05:29:06.370Z,24.90
2019-04-23T05:30:12.892Z,24.90
2019-04-23T05:31:17.240Z,24.90
2019-04-23T05:32:12.061Z,25.00
2019-04-23T05:33:21.911Z,25.00
2019-04-23T05:34:24.389Z,25.10
2019-04-23T05:37:52.936Z,25.10
2019-04-23T05:39:45.438Z,25.20
2019-04-23T05:40:53.652Z,25.20
2019-04-23T05:41:53.623Z,25.30
2019-04-23T05:42:58.708Z,25.30
2019-04-23T05:45:08.239Z,25.40
2019-04-23T05:46:22.283Z,25.40
2019-04-23T05:47:23.104Z,25.40
2019-04-23T05:49:29.302Z,25.50
2019-04-23T05:50:44.457Z,25.50
2019-04-23T05:51:48.640Z,25.60
2019-04-23T05:52:45.861Z,25.60
2019-04-23T05:53:51.008Z,25.60
2019-04-23T05:54:56.270Z,25.70
2019-04-23T05:58:08.865Z,25.70
2019-04-23T05:59:14.416Z,25.60
2019-04-23T06:00:19.449Z,25.50
2019-04-23T06:01:45.675Z,25.30
2019-04-23T06:02:25.995Z,25.20
2019-04-23T06:03:29.385Z,25.20
2019-04-23T06:04:37.002Z,25.10
2019-04-23T06:05:46.451Z,25.10
2019-04-23T06:06:55.785Z,25.10
2019-04-23T06:07:57.899Z,25.10
2019-04-23T06:11:16.981Z,25.10
2019-04-23T06:13:22.538Z,25.20
2019-04-23T06:14:27.099Z,25.20
2019-04-23T06:15:26.774Z,25.30
2019-04-23T06:16:36.259Z,25.40
2019-04-23T06:17:31.791Z,25.40
2019-04-23T06:19:43.157Z,25.60
2019-04-23T06:23:02.009Z,25.80
2019-04-23T06:24:10.377Z,25.90
2019-04-23T06:25:12.596Z,25.90
2019-04-23T06:27:24.354Z,26.10
2019-04-23T06:28:21.271Z,26.10
2019-04-23T06:29:32.160Z,26.20
2019-04-23T06:31:40.866Z,26.20
2019-04-23T06:32:37.714Z,26.20
2019-04-23T06:33:48.062Z,26.20
2019-04-23T06:35:58.363Z,26.20
2019-04-23T06:36:57.056Z,26.20
2019-04-23T06:39:13.336Z,26.20
2019-04-23T06:40:17.936Z,26.30
2019-04-23T06:41:23.340Z,26.30
2019-04-23T06:42:21.200Z,26.30
2019-04-23T06:43:33.070Z,26.30
2019-04-23T06:44:32.313Z,26.40
2019-04-23T06:47:42.970Z,26.40
2019-04-23T06:48:57.441Z,26.50
2019-04-23T06:49:55.580Z,26.50
2019-04-23T06:51:04.278Z,26.50
2019-04-23T06:53:04.550Z,26.60
2019-04-23T06:54:18.592Z,26.60
2019-04-23T06:55:20.375Z,26.60
2019-04-23T06:56:24.979Z,26.60
2019-04-23T06:57:52.260Z,26.70
2019-04-23T06:59:35.274Z,26.70
2019-04-23T07:01:53.159Z,26.80
2019-04-23T07:02:54.160Z,26.80
2019-04-23T07:03:57.028Z,26.80
2019-04-23T07:05:03.338Z,26.90
2019-04-23T07:07:31.625Z,26.90
2019-04-23T07:08:22.452Z,27.00
2019-04-23T07:09:13.376Z,27.00
2019-04-23T07:10:29.890Z,27.00
2019-04-23T07:11:39.883Z,27.10
2019-04-23T07:12:36.392Z,27.10
2019-04-23T07:13:47.158Z,27.10
2019-04-23T07:15:04.444Z,27.20
2019-04-23T07:16:01.189Z,27.20
2019-04-23T07:16:54.568Z,27.30
2019-04-23T07:17:54.322Z,27.30
2019-04-23T07:19:04.920Z,27.40
2019-04-23T07:21:13.351Z,27.60
2019-04-23T07:22:16.041Z,27.80
2019-04-23T07:23:19.370Z,27.90
2019-04-23T07:24:24.504Z,28.00
2019-04-23T07:25:29.663Z,28.20
2019-04-23T07:26:33.337Z,28.30
2019-04-23T07:27:31.767Z,28.50
2019-04-23T07:28:50.219Z,28.70
2019-04-23T07:31:02.415Z,28.90
2019-04-23T07:33:04.575Z,29.10
2019-04-23T07:36:17.131Z,29.20
2019-04-23T07:37:17.659Z,29.20
2019-04-23T07:38:34.714Z,29.30
2019-04-23T07:39:33.355Z,29.30
2019-04-23T07:40:37.471Z,29.30
2019-04-23T07:42:56.697Z,29.40
2019-04-23T07:43:49.401Z,29.40
2019-04-23T07:46:08.139Z,29.40
2019-04-23T07:47:11.356Z,29.50
2019-04-23T07:48:10.847Z,29.50
2019-04-23T07:49:11.972Z,29.60
2019-04-23T07:50:23.438Z,29.60
2019-04-23T07:51:22.922Z,29.70
2019-04-23T07:53:29.300Z,29.80
2019-04-23T07:54:40.830Z,29.80
2019-04-23T07:55:49.878Z,29.90
2019-04-23T07:56:49.001Z,29.80
2019-04-23T07:57:50.639Z,29.80
2019-04-23T07:58:52.512Z,29.70
2019-04-23T08:00:00.890Z,29.70
2019-04-23T08:00:57.128Z,29.50
2019-04-23T08:02:13.913Z,29.40
2019-04-23T08:03:17.680Z,29.30
2019-04-23T08:04:16.881Z,29.10
2019-04-23T08:05:22.582Z,28.90
2019-04-23T08:06:24.596Z,28.80
2019-04-23T08:07:35.820Z,28.60
2019-04-23T08:08:36.448Z,28.60
2019-04-23T08:09:48.553Z,28.40
2019-04-23T08:11:25.612Z,28.30
2019-04-23T08:13:15.590Z,28.20
2019-04-23T08:14:12.985Z,28.10
2019-04-23T08:15:23.173Z,28.00
2019-04-23T08:16:34.299Z,27.90
2019-04-23T08:17:27.868Z,27.90
2019-04-23T08:19:51.290Z,27.70
2019-04-23T08:20:49.609Z,27.50
2019-04-23T08:21:58.392Z,27.40
2019-04-23T08:22:53.779Z,27.30
2019-04-23T08:24:05.853Z,27.20
2019-04-23T08:25:08.377Z,27.00
2019-04-23T08:26:22.474Z,27.00
2019-04-23T08:27:16.381Z,26.80
2019-04-23T08:28:25.466Z,26.80
2019-04-23T08:29:22.095Z,26.70
2019-04-23T08:30:25.526Z,26.70
2019-04-23T08:31:40.286Z,26.60
2019-04-23T08:32:55.394Z,26.50
2019-04-23T08:33:54.189Z,26.50
2019-04-23T08:34:56.369Z,26.50
2019-04-23T08:35:54.191Z,26.40
2019-04-23T08:38:11.629Z,26.30
2019-04-23T08:39:02.784Z,26.30
2019-04-23T08:40:15.105Z,26.20
2019-04-23T08:44:36.873Z,26.10
2019-04-23T08:45:29.977Z,26.10
2019-04-23T08:46:50.965Z,26.10
2019-04-23T08:47:42.206Z,26.10
2019-04-23T08:51:03.527Z,26.10
2019-04-23T08:52:10.489Z,26.10
2019-04-23T08:53:24.819Z,26.00
2019-04-23T08:54:26.803Z,26.00
2019-04-23T08:55:21.126Z,26.00
2019-04-23T08:56:27.483Z,26.00
2019-04-23T08:57:27.277Z,26.00
2019-04-23T08:58:31.982Z,26.00
2019-04-23T09:00:47.364Z,25.90
2019-04-23T09:02:12.153Z,25.80
2019-04-23T09:02:59.707Z,25.80
2019-04-23T09:03:52.657Z,25.70
2019-04-23T09:05:08.778Z,25.70
2019-04-23T09:06:05.817Z,25.60
2019-04-23T09:07:16.932Z,25.60
2019-04-23T09:09:24.876Z,25.60
2019-04-23T09:10:25.623Z,25.50
2019-04-23T09:11:43.469Z,25.50
2019-04-23T09:12:34.986Z,25.50
2019-04-23T09:13:53.202Z,25.40
2019-04-23T09:14:44.803Z,25.40
2019-04-23T09:15:52.691Z,25.40
2019-04-23T09:16:52.855Z,25.40
2019-04-23T09:19:08.818Z,25.40
2019-04-23T09:21:09.676Z,25.30
2019-04-23T09:22:22.991Z,25.30
2019-04-23T09:23:28.375Z,25.30
2019-04-23T09:24:25.797Z,25.30
2019-04-23T09:25:51.041Z,25.30
2019-04-23T09:26:33.262Z,25.30
2019-04-23T09:27:42.411Z,25.30
2019-04-23T09:30:07.624Z,25.30
2019-04-23T09:31:04.452Z,25.20
2019-04-23T09:33:06.431Z,25.20
2019-04-23T09:34:11.287Z,25.20
2019-04-23T09:36:22.381Z,25.20
2019-04-23T09:37:26.840Z,25.20
2019-04-23T09:38:50.258Z,25.20
2019-04-23T09:39:34.769Z,25.20
2019-04-23T09:41:38.026Z,25.20
2019-04-23T09:43:08.141Z,25.20
2019-04-23T09:43:58.942Z,25.20
2019-04-23T09:45:12.989Z,25.20
2019-04-23T09:46:07.750Z,25.20
2019-04-23T09:47:13.978Z,25.20
2019-04-23T09:48:04.655Z,25.10
2019-04-23T09:49:20.667Z,25.10
2019-04-23T09:50:20.190Z,25.00
2019-04-23T09:51:33.083Z,25.00
2019-04-23T09:52:36.792Z,25.00
2019-04-23T09:53:34.467Z,25.00
2019-04-23T09:54:52.884Z,24.90
2019-04-23T09:55:43.740Z,24.90
2019-04-23T09:57:03.911Z,24.90
2019-04-23T09:58:02.251Z,24.90
2019-04-23T09:59:08.825Z,24.90
2019-04-23T10:00:08.730Z,24.90
2019-04-23T10:01:20.816Z,24.90
2019-04-23T10:02:19.395Z,24.90
2019-04-23T10:03:16.395Z,24.90
2019-04-23T10:04:19.467Z,25.00
2019-04-23T10:05:22.658Z,24.90
2019-04-23T10:06:20.856Z,24.90
2019-04-23T10:07:30.014Z,25.00
2019-04-23T10:08:31.245Z,25.00
2019-04-23T10:09:28.225Z,24.90
2019-04-23T10:10:32.497Z,25.00
2019-04-23T10:11:37.436Z,25.00
2019-04-23T10:12:40.076Z,25.00
2019-04-23T10:13:45.049Z,25.00
2019-04-23T10:14:59.313Z,25.00
2019-04-23T10:15:53.950Z,25.00
2019-04-23T10:16:58.061Z,25.00
2019-04-23T10:18:02.477Z,25.00
2019-04-23T10:19:06.049Z,25.00
2019-04-23T10:20:10.826Z,25.00
2019-04-23T10:21:15.323Z,25.00
2019-04-23T10:22:19.506Z,25.00
2019-04-23T10:23:23.220Z,25.00
2019-04-23T10:24:27.624Z,25.00
2019-04-23T10:25:31.970Z,25.10
2019-04-23T10:26:37.717Z,25.10
2019-04-23T10:27:41.315Z,25.10
2019-04-23T10:28:44.352Z,25.10
2019-04-23T10:29:47.877Z,25.10
2019-04-23T10:30:54.448Z,25.10
2019-04-23T10:31:55.843Z,25.10
2019-04-23T10:33:01.272Z,25.10
2019-04-23T10:34:04.523Z,25.10
2019-04-23T10:35:20.930Z,25.10
2019-04-23T10:36:15.827Z,25.10
2019-04-23T10:37:29.962Z,25.10
2019-04-23T10:38:22.597Z,25.20
2019-04-23T10:39:33.599Z,25.20
2019-04-23T10:40:38.010Z,25.10
2019-04-23T10:41:38.426Z,25.10
2019-04-23T10:42:45.638Z,25.20
2019-04-23T10:43:48.402Z,25.10
2019-04-23T10:44:53.095Z,25.20
2019-04-23T10:46:15.097Z,25.20
2019-04-23T10:47:30.220Z,25.20
2019-04-23T10:49:47.497Z,25.20
2019-04-23T10:50:47.643Z,25.20
2019-04-23T10:51:51.908Z,25.20
2019-04-23T10:53:02.476Z,25.20
2019-04-23T10:54:03.456Z,25.20
2019-04-23T10:54:59.964Z,25.20
2019-04-23T10:56:21.189Z,25.20
2019-04-23T10:57:15.911Z,25.20
2019-04-23T10:59:28.740Z,25.20
2019-04-23T11:00:30.447Z,25.20
2019-04-23T11:01:42.024Z,25.10
2019-04-23T11:02:39.057Z,25.20
2019-04-23T11:04:02.198Z,25.20
2019-04-23T11:04:53.971Z,25.20
2019-04-23T11:05:58.831Z,25.20
2019-04-23T11:06:50.113Z,25.20
2019-04-23T11:07:56.598Z,25.20
2019-04-23T11:09:23.066Z,25.20
2019-04-23T11:10:22.154Z,25.20
2019-04-23T11:11:15.209Z,25.10
2019-04-23T11:12:32.978Z,25.10
2019-04-23T11:13:41.019Z,25.10
2019-04-23T11:14:31.057Z,25.10
2019-04-23T11:17:45.881Z,25.00
2019-04-23T11:19:56.710Z,25.00
2019-04-23T11:20:58.680Z,25.00
2019-04-23T11:22:24.121Z,25.10
2019-04-23T11:23:04.920Z,25.10
2019-04-23T11:24:23.636Z,25.10
2019-04-23T11:25:29.945Z,25.10
2019-04-23T11:26:32.764Z,25.10
2019-04-23T11:27:28.101Z,25.10
2019-04-23T11:28:32.780Z,25.10
2019-04-23T11:29:40.763Z,25.10
2019-04-23T11:33:00.853Z,25.10
2019-04-23T11:33:59.482Z,25.10
2019-04-23T11:35:17.641Z,25.10
2019-04-23T11:36:33.283Z,25.10
2019-04-23T11:37:23.118Z,25.10
2019-04-23T11:38:44.101Z,25.10
2019-04-23T11:39:26.766Z,25.10
2019-04-23T11:41:37.937Z,25.10
2019-04-23T11:42:42.765Z,25.10
2019-04-23T11:43:37.736Z,25.10
2019-04-23T11:44:49.126Z,25.10
2019-04-23T11:47:08.301Z,25.10
2019-04-23T11:48:21.874Z,25.10
2019-04-23T11:49:34.566Z,25.10
2019-04-23T11:50:39.683Z,25.10
2019-04-23T11:53:27.817Z,25.00
2019-04-23T11:54:33.268Z,25.00
2019-04-23T11:57:07.961Z,25.00
2019-04-23T11:58:46.028Z,25.00
2019-04-23T12:01:11.448Z,25.10
2019-04-23T12:01:56.419Z,25.10
2019-04-23T12:05:33.498Z,25.10
2019-04-23T12:14:04.322Z,25.00
2019-04-23T12:15:13.505Z,25.00
2019-04-23T12:16:21.462Z,25.00
2019-04-23T12:17:20.948Z,25.00
2019-04-23T12:18:27.227Z,25.00
2019-04-23T12:19:54.978Z,25.00
2019-04-23T12:23:08.960Z,24.90
2019-04-23T12:23:54.781Z,25.00
2019-04-23T12:25:52.825Z,24.90
2019-04-23T12:28:06.669Z,25.00
2019-04-23T12:29:21.125Z,25.00
2019-04-23T12:30:20.160Z,25.00
2019-04-23T12:31:26.697Z,25.00
2019-04-23T12:33:38.484Z,25.00
2019-04-23T12:34:46.929Z,25.00
2019-04-23T12:35:35.505Z,25.00
2019-04-23T12:36:43.791Z,25.00
2019-04-23T12:37:52.427Z,25.00
2019-04-23T12:38:48.988Z,25.00
2019-04-23T12:41:21.163Z,24.90
2019-04-23T12:42:19.727Z,25.00
2019-04-23T12:44:20.175Z,25.00
2019-04-23T12:46:29.969Z,25.00
2019-04-23T12:47:43.682Z,25.00
2019-04-23T12:48:50.831Z,25.00
2019-04-23T12:50:13.260Z,25.00
2019-04-23T12:51:55.973Z,25.00
2019-04-23T12:53:01.186Z,25.00
2019-04-23T12:54:07.362Z,25.00
2019-04-23T12:55:14.491Z,25.00
2019-04-23T12:56:20.845Z,25.00
2019-04-23T12:59:27.266Z,24.90
2019-04-23T13:00:35.890Z,24.90
2019-04-23T13:01:42.685Z,24.90
2019-04-23T13:02:45.168Z,24.90
2019-04-23T13:04:03.461Z,24.90
2019-04-23T13:04:55.034Z,24.90
2019-04-23T13:05:51.243Z,24.90
2019-04-23T13:07:09.195Z,24.90
2019-04-23T13:08:15.749Z,24.90
2019-04-23T13:09:28.822Z,24.90
2019-04-23T13:10:27.350Z,24.90
2019-04-23T13:11:33.347Z,24.90
2019-04-23T13:13:44.459Z,24.90
2019-04-23T13:14:42.035Z,24.90
2019-04-23T13:15:40.836Z,24.90
2019-04-23T13:16:53.973Z,24.90
2019-04-23T13:17:58.830Z,24.90
2019-04-23T13:20:00.569Z,24.90
2019-04-23T13:21:07.050Z,24.90
2019-04-23T13:23:16.916Z,24.90
2019-04-23T13:24:17.181Z,24.90
2019-04-23T13:25:28.286Z,24.80
2019-04-23T13:26:24.818Z,24.90
2019-04-23T13:27:39.986Z,24.80
2019-04-23T13:31:51.818Z,24.80
2019-04-23T13:33:02.870Z,24.90
2019-04-23T13:33:49.633Z,24.90
2019-04-23T13:35:18.540Z,24.90
2019-04-23T13:37:26.264Z,24.90
2019-04-23T13:38:28.199Z,24.90
2019-04-23T13:39:28.172Z,24.90
2019-04-23T13:40:37.532Z,24.80
2019-04-23T13:41:33.373Z,24.90
2019-04-23T13:43:42.615Z,24.90
2019-04-23T13:46:03.743Z,24.90
2019-04-23T13:46:59.994Z,24.90
2019-04-23T13:48:07.023Z,24.90
2019-04-23T13:49:07.678Z,24.90
2019-04-23T13:50:24.365Z,24.90
2019-04-23T13:51:21.133Z,24.90
2019-04-23T13:52:47.818Z,24.80
2019-04-23T13:53:35.478Z,24.80
2019-04-23T13:54:59.949Z,24.80
2019-04-23T13:55:39.129Z,24.80
2019-04-23T13:57:12.921Z,24.80
2019-04-23T13:58:51.828Z,24.80
2019-04-23T13:59:56.205Z,24.80
2019-04-23T14:01:13.813Z,24.80
2019-04-23T14:02:17.607Z,24.80
2019-04-23T14:03:13.663Z,24.80
2019-04-23T14:04:24.078Z,24.80
2019-04-23T14:05:24.031Z,24.80
2019-04-23T14:07:34.671Z,24.80
2019-04-23T14:09:45.542Z,24.80
2019-04-23T14:11:38.892Z,24.80
2019-04-23T14:13:12.474Z,24.80
2019-04-23T14:15:04.488Z,24.80
2019-04-23T14:17:26.363Z,24.80
2019-04-23T14:18:43.953Z,24.80
2019-04-23T14:19:12.791Z,24.80
2019-04-23T14:20:21.544Z,24.80
2019-04-23T14:21:31.685Z,24.80
2019-04-23T14:22:51.306Z,24.80
2019-04-23T14:23:54.089Z,24.80
2019-04-23T14:24:59.271Z,24.80
2019-04-23T14:26:05.228Z,24.80
2019-04-23T14:26:50.630Z,24.80
2019-04-23T14:28:05.829Z,24.80
2019-04-23T14:29:12.865Z,24.80
2019-04-23T14:30:13.140Z,24.80
2019-04-23T14:32:15.647Z,24.80
2019-04-23T14:34:50.866Z,24.80
2019-04-23T14:36:36.141Z,24.80
2019-04-23T14:37:59.061Z,24.80
2019-04-23T14:38:43.906Z,24.70
2019-04-23T14:39:47.767Z,24.70
2019-04-23T14:41:07.812Z,24.70
2019-04-23T14:42:09.892Z,24.70
2019-04-23T14:43:12.176Z,24.70
2019-04-23T14:44:10.455Z,24.70
2019-04-23T14:45:29.517Z,24.70
2019-04-23T14:47:38.396Z,24.70
2019-04-23T14:48:31.345Z,24.70
2019-04-23T14:51:47.777Z,24.70
2019-04-23T14:52:50.509Z,24.70
2019-04-23T14:57:11.218Z,24.60
2019-04-23T14:58:18.194Z,24.70
2019-04-23T14:59:07.268Z,24.70
2019-04-23T15:00:17.472Z,24.70
2019-04-23T15:01:27.247Z,24.70
2019-04-23T15:02:28.748Z,24.70
2019-04-23T15:03:35.324Z,24.70
2019-04-23T15:05:52.237Z,24.70
2019-04-23T15:06:54.886Z,24.70
2019-04-23T15:07:53.198Z,24.70
2019-04-23T15:08:57.301Z,24.70
2019-04-23T15:10:05.801Z,24.70
2019-04-23T15:11:13.070Z,24.70
2019-04-23T15:12:17.605Z,24.70
2019-04-23T15:13:15.900Z,24.70
2019-04-23T15:14:19.506Z,24.70
2019-04-23T15:15:19.316Z,24.70
2019-04-23T15:17:28.468Z,24.60
2019-04-23T15:18:48.787Z,24.60
2019-04-23T15:19:40.158Z,24.60
2019-04-23T15:20:46.359Z,24.60
2019-04-23T15:22:05.265Z,24.60
2019-04-23T15:24:04.004Z,24.60
2019-04-23T15:25:19.471Z,24.60
2019-04-23T15:28:09.061Z,24.60
2019-04-23T15:29:04.500Z,24.60
2019-04-23T15:30:25.431Z,24.60
2019-04-23T15:31:33.316Z,24.60
2019-04-23T15:32:46.832Z,24.60
2019-04-23T15:34:51.974Z,24.60
2019-04-23T15:36:04.186Z,24.60
2019-04-23T15:37:23.036Z,24.60
2019-04-23T15:39:19.593Z,24.60
2019-04-23T15:40:15.190Z,24.60
2019-04-23T15:41:21.297Z,24.60
2019-04-23T15:42:16.632Z,24.50
2019-04-23T15:43:22.460Z,24.50
2019-04-23T15:44:42.027Z,24.50
2019-04-23T15:45:41.602Z,24.50
2019-04-23T15:46:38.898Z,24.50
2019-04-23T15:47:49.356Z,24.50
2019-04-23T15:48:58.892Z,24.50
2019-04-23T15:50:02.823Z,24.50
2019-04-23T15:51:04.904Z,24.50
2019-04-23T15:52:03.808Z,24.50
2019-04-23T15:55:15.148Z,24.50
2019-04-23T15:57:49.658Z,24.50
2019-04-23T16:00:42.270Z,24.50
2019-04-23T16:01:44.299Z,24.50
2019-04-23T16:02:22.179Z,24.50
2019-04-23T16:03:27.480Z,24.50
2019-04-23T16:04:31.653Z,24.40
2019-04-23T16:05:35.024Z,24.40
2019-04-23T16:06:41.420Z,24.40
2019-04-23T16:08:06.095Z,24.40
2019-04-23T16:09:06.345Z,24.40
2019-04-23T16:10:25.142Z,24.40
2019-04-23T16:11:33.605Z,24.40
2019-04-23T16:12:25.852Z,24.40
2019-04-23T16:13:40.596Z,24.40
2019-04-23T16:14:42.756Z,24.40
2019-04-23T16:15:48.361Z,24.30
2019-04-23T16:17:53.565Z,24.40
2019-04-23T16:19:05.740Z,24.40
2019-04-23T16:21:10.991Z,24.50
2019-04-23T16:23:16.835Z,24.50
2019-04-23T16:25:36.375Z,24.50
2019-04-23T16:27:32.008Z,24.60
2019-04-23T16:29:00.344Z,24.60
2019-04-23T16:29:54.073Z,24.60
2019-04-23T16:30:46.229Z,24.70
2019-04-23T16:31:54.780Z,24.70
2019-04-23T16:33:03.676Z,24.70
2019-04-23T16:34:13.589Z,24.70
2019-04-23T16:35:19.382Z,24.70
2019-04-23T16:36:11.200Z,24.70
2019-04-23T16:37:20.133Z,24.70
2019-04-23T16:38:32.503Z,24.70
2019-04-23T16:39:21.549Z,24.80
2019-04-23T16:40:33.221Z,24.80
2019-04-23T16:41:34.914Z,24.80
2019-04-23T16:42:38.134Z,24.80
2019-04-23T16:44:56.846Z,24.90
2019-04-23T16:45:51.810Z,24.90
2019-04-23T16:48:06.585Z,24.90
2019-04-23T16:49:15.193Z,24.90
2019-04-23T16:50:11.166Z,24.90
2019-04-23T16:52:24.474Z,24.90
2019-04-23T16:54:36.785Z,24.90
2019-04-23T16:55:38.263Z,24.90
2019-04-23T16:56:55.967Z,25.00
2019-04-23T16:57:54.902Z,25.00
2019-04-23T16:58:54.404Z,25.00
2019-04-23T17:00:08.181Z,25.00
2019-04-23T17:01:05.914Z,25.00
2019-04-23T17:02:11.977Z,25.00
2019-04-23T17:04:19.600Z,25.00
2019-04-23T17:05:20.167Z,25.00
2019-04-23T17:07:22.145Z,25.10
2019-04-23T17:08:42.564Z,25.00
2019-04-23T17:09:42.432Z,25.10
2019-04-23T17:10:46.734Z,25.10
2019-04-23T17:11:41.645Z,25.10
2019-04-23T17:12:54.805Z,25.10
2019-04-23T17:13:59.003Z,25.10
2019-04-23T17:15:05.438Z,25.10
2019-04-23T17:17:08.115Z,25.10
2019-04-23T17:18:16.929Z,25.10
2019-04-23T17:20:27.180Z,25.10
2019-04-23T17:22:33.749Z,25.10
2019-04-23T17:23:52.300Z,25.10
2019-04-23T17:24:40.561Z,25.10
2019-04-23T17:25:54.296Z,25.10
2019-04-23T17:27:05.483Z,25.10
2019-04-23T17:28:05.591Z,25.10
2019-04-23T17:29:10.927Z,25.10
2019-04-23T17:30:09.368Z,25.10
2019-04-23T17:31:26.292Z,25.20
2019-04-23T17:32:09.910Z,25.20